Time;durP1;ratioP1;P1;durP2;ratioP2;P2;SDS_P1;SDS_P2;PMS_P1;PMS_P2;Temp;Humidity;BMP_temperature;BMP_pressure;BME280_temperature;BME280_humidity;BME280_pressure;Samples;Min_cycle;Max_cycle;Signal;HPM_P1;HPM_P2
2022/09/25 06:25:42;;;;;;;1.17;1.10;;;21.00;99.90;;;;;;5113120;27;20979;-66
2022/09/25 06:28:10;;;;;;;1.67;1.57;;;21.00;99.90;;;;;;5100529;28;20529;-63
2022/09/25 06:30:38;;;;;;;1.77;1.67;;;20.90;98.10;;;;;;5109717;28;20529;-59
2022/09/25 06:33:08;;;;;;;2.00;1.73;;;20.70;97.40;;;;;;5109272;28;20438;-62
2022/09/25 06:35:36;;;;;;;2.87;1.47;;;20.70;95.10;;;;;;5132892;22;20438;-64
2022/09/25 06:38:04;;;;;;;1.50;0.97;;;20.80;97.10;;;;;;5056256;28;20911;-68
2022/09/25 06:40:31;;;;;;;1.10;1.00;;;20.80;97.40;;;;;;5048506;28;20445;-69
2022/09/25 06:43:01;;;;;;;1.67;1.00;;;20.90;97.10;;;;;;5048530;28;20447;-67
2022/09/25 06:45:31;;;;;;;2.07;1.33;;;20.90;96.90;;;;;;5048640;28;20490;-66
2022/09/25 06:48:01;;;;;;;2.20;1.33;;;21.00;96.80;;;;;;5028982;28;20544;-69
2022/09/25 06:50:33;;;;;;;1.17;1.10;;;21.00;96.60;;;;;;5011508;28;20876;-65
2022/09/25 06:53:00;;;;;;;2.80;1.07;;;21.10;96.60;;;;;;5008915;28;20450;-64
2022/09/25 06:55:27;;;;;;;2.23;2.07;;;21.10;96.50;;;;;;5009304;28;20583;-65
2022/09/25 06:57:54;;;;;;;2.10;1.47;;;21.10;96.30;;;;;;5019135;28;20461;-64
2022/09/25 07:00:22;;;;;;;1.13;0.80;;;21.20;96.50;;;;;;5029685;28;20541;-64
2022/09/25 07:05:33;;;;;;;1.30;1.20;;;21.20;96.30;;;;;;5031304;28;20480;-64
2022/09/25 07:08:00;;;;;;;1.93;1.00;;;21.20;95.90;;;;;;5022683;28;20447;-64
2022/09/25 07:10:27;;;;;;;2.23;1.83;;;21.20;96.50;;;;;;5025443;28;20540;-64
2022/09/25 07:12:54;;;;;;;4.90;2.10;;;21.30;98.90;;;;;;5031300;28;20536;-62
2022/09/25 07:15:22;;;;;;;5.83;1.77;;;21.20;99.20;;;;;;5028648;28;20485;-64
2022/09/25 07:17:49;;;;;;;3.60;2.37;;;21.20;99.90;;;;;;5025340;28;20497;-62
2022/09/25 07:20:16;;;;;;;7.90;3.17;;;21.20;99.70;;;;;;5024705;28;20537;-65
2022/09/25 07:22:43;;;;;;;4.87;1.80;;;21.20;99.40;;;;;;5028362;28;20954;-70
2022/09/25 07:25:11;;;;;;;3.60;1.50;;;21.20;99.60;;;;;;5028428;28;20567;-70
2022/09/25 07:27:38;;;;;;;4.93;2.87;;;21.20;99.90;;;;;;5012971;28;20466;-65
2022/09/25 07:30:07;;;;;;;5.63;3.10;;;21.20;99.90;;;;;;5008374;28;20973;-66
2022/09/25 07:32:35;;;;;;;3.07;2.23;;;21.30;99.90;;;;;;5008159;28;20526;-66
2022/09/25 07:35:03;;;;;;;4.20;1.53;;;21.30;99.90;;;;;;5009748;28;20540;-66
2022/09/25 07:37:30;;;;;;;2.87;1.50;;;21.30;99.90;;;;;;5013617;28;20516;-65
2022/09/25 07:39:57;;;;;;;3.47;1.80;;;21.30;99.90;;;;;;5014736;28;20504;-64
2022/09/25 07:42:24;;;;;;;3.27;1.90;;;21.20;99.90;;;;;;5014308;28;20456;-64
2022/09/25 07:44:50;;;;;;;1.57;1.20;;;21.20;99.90;;;;;;5014461;28;20917;-64
2022/09/25 07:47:18;;;;;;;1.87;1.30;;;21.20;99.90;;;;;;4994397;28;20477;-63
2022/09/25 07:49:46;;;;;;;2.90;2.47;;;21.30;99.90;;;;;;4994977;28;20516;-64
2022/09/25 07:52:13;;;;;;;12.00;1.97;;;21.30;99.90;;;;;;4994664;28;20443;-64
2022/09/25 07:54:41;;;;;;;1.33;1.23;;;21.30;99.90;;;;;;4994913;28;20447;-64
2022/09/25 07:57:09;;;;;;;3.90;2.37;;;21.30;99.90;;;;;;4993924;28;20984;-62
2022/09/25 07:59:35;;;;;;;3.10;1.80;;;21.20;99.60;;;;;;4994768;28;20447;-64
2022/09/25 08:02:03;;;;;;;2.37;2.00;;;21.20;99.00;;;;;;4994545;28;20976;-64
2022/09/25 08:04:30;;;;;;;2.13;1.67;;;21.20;98.60;;;;;;4994558;28;20996;-64
2022/09/25 08:07:00;;;;;;;2.10;1.90;;;21.20;98.40;;;;;;4993797;28;20550;-64
2022/09/25 08:09:27;;;;;;;2.77;2.47;;;21.20;97.80;;;;;;4994496;28;20447;-63
2022/09/25 08:11:54;;;;;;;2.17;1.57;;;21.20;97.70;;;;;;4994316;28;20470;-65
2022/09/25 08:14:21;;;;;;;3.13;2.10;;;21.20;97.20;;;;;;4994595;28;20485;-65
2022/09/25 08:16:48;;;;;;;2.60;1.90;;;21.20;97.20;;;;;;4994077;28;20475;-65
2022/09/25 08:19:17;;;;;;;4.87;2.93;;;21.20;96.80;;;;;;4994554;28;20536;-65
2022/09/25 08:21:44;;;;;;;3.53;2.67;;;21.20;95.80;;;;;;4994219;28;20969;-65
2022/09/25 08:24:12;;;;;;;2.10;1.90;;;21.20;96.40;;;;;;4994135;28;20481;-65
2022/09/25 08:26:39;;;;;;;2.07;1.87;;;21.20;96.00;;;;;;4993433;28;20490;-65
2022/09/25 08:29:07;;;;;;;1.80;1.63;;;21.10;95.50;;;;;;4994007;28;20447;-65
2022/09/25 08:31:34;;;;;;;3.10;1.83;;;21.10;96.00;;;;;;4994015;28;20471;-66
2022/09/25 08:34:01;;;;;;;1.30;1.30;;;21.20;95.40;;;;;;4993823;28;20451;-66
2022/09/25 08:36:28;;;;;;;2.20;2.00;;;21.10;95.30;;;;;;4993674;28;20537;-65
2022/09/25 08:38:57;;;;;;;3.00;1.70;;;21.10;95.00;;;;;;4994199;28;20483;-65
2022/09/25 08:41:29;;;;;;;2.00;1.53;;;21.10;94.70;;;;;;4993788;28;20482;-65
2022/09/25 08:44:02;;;;;;;5.07;1.87;;;21.10;94.60;;;;;;4993773;28;20458;-65
2022/09/25 08:49:27;;;;;;;3.03;1.67;;;21.10;93.80;;;;;;4993647;28;20427;-65
2022/09/25 08:52:00;;;;;;;1.47;1.37;;;21.10;93.20;;;;;;4993741;28;20451;-65
2022/09/25 08:54:30;;;;;;;2.10;1.97;;;21.10;93.00;;;;;;4993497;28;20530;-65
2022/09/25 08:57:02;;;;;;;1.77;1.67;;;21.10;92.60;;;;;;4992943;28;20473;-63
2022/09/25 08:59:34;;;;;;;2.23;2.03;;;21.10;92.80;;;;;;4992996;28;20451;-64
2022/09/25 09:02:10;;;;;;;4.53;1.77;;;21.10;92.20;;;;;;4992408;28;20506;-65
2022/09/25 09:04:43;;;;;;;5.93;1.70;;;21.10;92.10;;;;;;5000154;28;20481;-66
2022/09/25 09:07:13;;;;;;;2.33;2.13;;;21.00;90.00;;;;;;5012994;28;20470;-64
2022/09/25 09:09:44;;;;;;;1.37;1.30;;;21.00;90.10;;;;;;5013065;28;20460;-64
2022/09/25 09:12:14;;;;;;;5.20;1.13;;;21.00;88.20;;;;;;5004984;28;20457;-64
2022/09/25 09:14:45;;;;;;;4.30;1.47;;;21.00;87.10;;;;;;4993409;28;20534;-65
2022/09/25 09:17:17;;;;;;;2.07;1.40;;;21.00;86.40;;;;;;4993466;28;20504;-65
2022/09/25 09:19:48;;;;;;;1.70;1.40;;;21.00;88.00;;;;;;4994966;28;20452;-68
2022/09/25 09:22:20;;;;;;;4.20;1.33;;;21.00;90.00;;;;;;4992905;28;20210;-67
2022/09/25 09:24:55;;;;;;;1.80;1.40;;;21.00;90.80;;;;;;4996220;28;20479;-65
2022/09/25 09:27:47;;;;;;;3.93;1.27;;;21.10;91.30;;;;;;4993030;28;20478;-64
2022/09/25 09:30:18;;;;;;;2.37;1.53;;;21.10;91.70;;;;;;5005027;28;20456;-63
2022/09/25 09:33:03;;;;;;;2.10;1.50;;;21.10;90.90;;;;;;5012594;28;20447;-65
2022/09/25 09:35:38;;;;;;;2.27;1.13;;;21.10;91.30;;;;;;5012472;28;20533;-65
2022/09/25 09:38:16;;;;;;;4.33;1.47;;;21.10;91.80;;;;;;5012806;28;20438;-65
2022/09/25 09:41:12;;;;;;;3.63;1.63;;;21.10;92.00;;;;;;4996299;28;20449;-64
2022/09/25 09:43:56;;;;;;;1.53;1.27;;;21.10;92.90;;;;;;4995760;28;20447;-65
2022/09/25 09:46:30;;;;;;;2.47;1.27;;;21.10;92.80;;;;;;5010698;28;20485;-64
2022/09/25 09:49:06;;;;;;;1.90;1.20;;;21.10;93.60;;;;;;5012335;28;20478;-64
2022/09/25 09:51:38;;;;;;;1.73;1.07;;;21.10;92.80;;;;;;5012662;28;20457;-66
2022/09/25 09:54:12;;;;;;;1.90;1.30;;;21.10;92.50;;;;;;5009139;28;20453;-67
2022/09/25 09:56:42;;;;;;;5.80;1.50;;;21.10;93.80;;;;;;4997738;28;20230;-63
2022/09/25 09:59:17;;;;;;;3.80;1.17;;;21.20;93.90;;;;;;4993403;28;20528;-64
2022/09/25 10:01:49;;;;;;;2.90;1.67;;;21.20;94.10;;;;;;4992553;28;20447;-67
2022/09/25 10:04:18;;;;;;;6.60;2.00;;;21.20;94.50;;;;;;4992470;28;20959;-69
2022/09/25 10:06:50;;;;;;;2.57;1.20;;;21.20;94.10;;;;;;4992313;28;22307;-67
2022/09/25 10:09:18;;;;;;;2.30;1.13;;;21.20;94.00;;;;;;5003168;28;20453;-68
2022/09/25 10:11:46;;;;;;;1.07;0.97;;;21.20;93.20;;;;;;4992357;28;20446;-67
2022/09/25 10:14:20;;;;;;;1.70;1.23;;;21.20;92.00;;;;;;5006414;28;20434;-67
2022/09/25 10:16:49;;;;;;;1.60;0.97;;;21.20;92.00;;;;;;4992442;28;20463;-67
2022/09/25 10:19:19;;;;;;;2.40;1.37;;;21.20;93.00;;;;;;4992206;28;20443;-67
2022/09/25 10:21:51;;;;;;;1.97;1.83;;;21.20;93.40;;;;;;4994941;28;20530;-67
2022/09/25 10:24:51;;;;;;;1.10;0.90;;;21.20;92.90;;;;;;5011818;28;20474;-66
2022/09/25 10:27:30;;;;;;;1.30;1.00;;;21.20;92.90;;;;;;5011759;28;20538;-68
2022/09/25 10:30:25;;;;;;;1.17;1.03;;;21.20;91.60;;;;;;5012164;28;20474;-67
2022/09/25 10:33:01;;;;;;;1.77;1.30;;;21.20;92.00;;;;;;4987948;28;20947;-68
2022/09/25 10:35:30;;;;;;;2.97;1.57;;;21.10;90.80;;;;;;5012190;28;20529;-66
2022/09/25 10:38:00;;;;;;;0.80;0.80;;;21.10;90.70;;;;;;5011802;28;20457;-66
2022/09/25 10:40:31;;;;;;;1.67;1.57;;;21.20;87.80;;;;;;5005768;28;20534;-70
2022/09/25 10:43:07;;;;;;;1.23;0.80;;;21.20;87.50;;;;;;5001154;28;20454;-65
2022/09/25 10:45:37;;;;;;;2.60;1.27;;;21.20;86.60;;;;;;4993009;28;20492;-64
2022/09/25 10:51:17;;;;;;;2.10;0.97;;;21.20;88.60;;;;;;4992280;28;20794;-63
2022/09/25 10:53:45;;;;;;;1.87;1.27;;;21.20;87.80;;;;;;5005315;28;20450;-63
2022/09/25 10:56:17;;;;;;;1.00;0.80;;;21.20;88.90;;;;;;5011556;28;20462;-64
2022/09/25 10:58:47;;;;;;;1.00;0.90;;;21.30;85.70;;;;;;5011673;28;20450;-62
2022/09/25 11:01:16;;;;;;;1.13;0.80;;;21.30;84.40;;;;;;5011538;28;20446;-64
2022/09/25 11:03:51;;;;;;;3.20;1.40;;;21.30;83.50;;;;;;5011542;28;20453;-64
2022/09/25 11:06:22;;;;;;;1.50;1.27;;;21.30;81.40;;;;;;4995179;28;20490;-60
2022/09/25 11:08:57;;;;;;;1.87;1.37;;;21.30;80.80;;;;;;5000846;28;20451;-66
2022/09/25 11:11:26;;;;;;;2.10;1.50;;;21.30;81.00;;;;;;4993694;28;20457;-65
2022/09/25 11:13:56;;;;;;;1.47;1.37;;;21.30;82.40;;;;;;5010652;28;20777;-67
2022/09/25 11:16:44;;;;;;;4.10;2.23;;;21.30;84.60;;;;;;5015137;28;20884;-66
2022/09/25 11:19:13;;;;;;;1.80;1.70;;;21.30;82.80;;;;;;5015170;28;20446;-66
2022/09/25 11:21:46;;;;;;;5.50;2.30;;;21.30;78.90;;;;;;5014812;28;20488;-66
2022/09/25 11:24:19;;;;;;;2.77;2.10;;;21.30;76.80;;;;;;5014723;28;20450;-65
2022/09/25 11:26:51;;;;;;;3.13;2.70;;;21.30;77.90;;;;;;4995379;28;20945;-66
2022/09/25 11:29:24;;;;;;;2.17;1.97;;;21.30;75.50;;;;;;5004428;28;20501;-64
2022/09/25 11:31:57;;;;;;;2.17;2.03;;;21.30;75.70;;;;;;4998538;28;20865;-67
2022/09/25 11:34:40;;;;;;;2.53;2.07;;;21.30;75.80;;;;;;4999872;28;20517;-65
2022/09/25 11:37:18;;;;;;;2.43;2.33;;;21.30;76.30;;;;;;5014477;28;20474;-66
2022/09/25 11:42:38;;;;;;;1.90;1.80;;;21.40;76.00;;;;;;5000434;28;20442;-65
2022/09/25 11:45:15;;;;;;;4.10;2.20;;;21.40;74.10;;;;;;4995109;28;20455;-66
2022/09/25 11:47:53;;;;;;;2.27;2.10;;;21.40;75.50;;;;;;4995103;28;20549;-66
2022/09/25 11:50:26;;;;;;;2.77;2.00;;;21.40;75.80;;;;;;4995083;28;20451;-65
2022/09/25 11:53:02;;;;;;;1.43;1.33;;;21.40;75.00;;;;;;4994820;28;20538;-64
2022/09/25 11:55:56;;;;;;;2.03;1.70;;;21.40;74.20;;;;;;4994799;28;20533;-64
2022/09/25 11:58:45;;;;;;;1.87;1.13;;;21.40;75.40;;;;;;4994873;28;20525;-65
2022/09/25 12:01:24;;;;;;;1.03;1.03;;;21.40;78.10;;;;;;4998580;28;20874;-66
2022/09/25 12:04:26;;;;;;;1.90;1.67;;;21.40;78.10;;;;;;5000369;28;20453;-65
2022/09/25 12:07:15;;;;;;;3.83;2.00;;;21.40;75.30;;;;;;4997282;28;21007;-64
2022/09/25 12:10:03;;;;;;;2.33;1.27;;;21.40;76.70;;;;;;4993926;28;20542;-64
2022/09/25 12:12:38;;;;;;;1.00;1.00;;;21.40;77.70;;;;;;4994315;28;20447;-64
2022/09/25 12:15:16;;;;;;;1.97;1.30;;;21.40;76.00;;;;;;4994552;28;20446;-65
2022/09/25 12:17:54;;;;;;;3.77;2.60;;;21.40;74.60;;;;;;4994243;28;20556;-64
2022/09/25 12:20:28;;;;;;;2.07;1.57;;;21.40;73.20;;;;;;4994393;28;20443;-64
2022/09/25 12:23:07;;;;;;;1.40;1.30;;;21.40;73.40;;;;;;4993755;28;20806;-65
2022/09/25 12:26:00;;;;;;;1.70;1.60;;;21.40;77.20;;;;;;4993846;28;20479;-64
2022/09/25 12:28:39;;;;;;;1.50;1.40;;;21.40;80.00;;;;;;4993733;28;21026;-64
2022/09/25 12:31:13;;;;;;;1.30;1.00;;;21.40;77.90;;;;;;4992685;28;20531;-66
2022/09/25 12:33:48;;;;;;;1.60;1.10;;;21.40;77.90;;;;;;5004498;28;20447;-67
2022/09/25 12:36:23;;;;;;;1.50;1.40;;;21.50;75.60;;;;;;5013917;28;20222;-66
2022/09/25 12:38:54;;;;;;;1.40;1.30;;;21.60;77.90;;;;;;5013575;28;20547;-67
2022/09/25 12:41:28;;;;;;;1.15;0.80;;;21.60;78.40;;;;;;5013404;28;20444;-65
2022/09/25 12:44:00;;;;;;;1.30;1.20;;;21.60;76.80;;;;;;5014711;28;20210;-65
2022/09/25 12:46:36;;;;;;;1.33;1.33;;;21.70;77.20;;;;;;5014470;28;21032;-66
2022/09/25 12:49:09;;;;;;;0.90;0.90;;;21.70;72.70;;;;;;5000799;28;20446;-66
2022/09/25 12:51:40;;;;;;;1.00;1.00;;;21.60;75.80;;;;;;4994196;28;20455;-66
2022/09/25 12:54:23;;;;;;;3.33;1.30;;;21.60;76.40;;;;;;4994953;28;20447;-66
2022/09/25 12:56:56;;;;;;;1.77;1.23;;;21.60;73.50;;;;;;4995181;28;21059;-67
2022/09/25 12:59:28;;;;;;;1.87;0.67;;;21.60;72.20;;;;;;5006564;28;20814;-66
2022/09/25 13:02:02;;;;;;;1.33;1.20;;;21.60;72.60;;;;;;4993723;28;20546;-66
2022/09/25 13:04:48;;;;;;;1.27;1.20;;;21.60;69.60;;;;;;4994772;28;20535;-65
2022/09/25 13:07:22;;;;;;;1.47;1.03;;;21.50;70.30;;;;;;5002143;28;20536;-66
2022/09/25 13:09:49;;;;;;;1.13;1.00;;;21.50;73.20;;;;;;5013732;28;20454;-66
2022/09/25 13:12:26;;;;;;;1.60;1.17;;;21.50;75.50;;;;;;5000570;28;20533;-66
2022/09/25 13:14:56;;;;;;;1.60;1.03;;;21.60;75.80;;;;;;4993915;28;20456;-66
2022/09/25 13:17:23;;;;;;;1.30;1.20;;;21.60;79.30;;;;;;4995917;28;20463;-67
2022/09/25 13:19:50;;;;;;;3.00;0.93;;;21.60;79.50;;;;;;5002559;28;20447;-64
2022/09/25 13:22:23;;;;;;;0.87;0.83;;;21.60;78.90;;;;;;5009607;28;20461;-64
2022/09/25 13:24:52;;;;;;;1.13;1.07;;;21.60;75.70;;;;;;4998432;28;20461;-62
2022/09/25 13:27:23;;;;;;;0.93;0.83;;;21.60;77.10;;;;;;5006513;28;20928;-66
2022/09/25 13:29:57;;;;;;;1.00;1.00;;;21.60;78.30;;;;;;4995047;28;20451;-66
2022/09/25 13:32:27;;;;;;;1.15;1.00;;;21.60;79.10;;;;;;4995246;28;20527;-65
2022/09/25 13:34:56;;;;;;;1.57;0.97;;;21.60;77.70;;;;;;4994316;28;20243;-67
2022/09/25 13:37:30;;;;;;;1.87;0.87;;;21.70;74.30;;;;;;5010658;28;20470;-65
2022/09/25 13:42:45;;;;;;;3.03;0.80;;;21.70;76.40;;;;;;5009497;28;20513;-65
2022/09/25 13:45:29;;;;;;;1.03;0.90;;;21.70;76.90;;;;;;5003929;28;20444;-64
2022/09/25 13:48:14;;;;;;;1.73;1.13;;;21.70;78.30;;;;;;4992854;28;20494;-65
2022/09/25 13:50:44;;;;;;;2.43;1.10;;;21.70;80.30;;;;;;4998489;28;20443;-64
2022/09/25 13:53:49;;;;;;;1.33;1.10;;;21.70;79.40;;;;;;5002723;28;20443;-66
2022/09/25 13:56:48;;;;;;;6.70;1.47;;;21.70;78.20;;;;;;4992115;28;20487;-66
2022/09/25 13:59:36;;;;;;;1.20;1.10;;;21.70;78.70;;;;;;5007116;28;20452;-65
2022/09/25 14:02:40;;;;;;;5.23;2.20;;;21.70;78.10;;;;;;5005728;28;20459;-66
2022/09/25 14:05:07;;;;;;;1.20;0.90;;;21.70;76.80;;;;;;5004822;28;20540;-65
2022/09/25 14:07:35;;;;;;;0.80;0.80;;;21.70;78.00;;;;;;5010280;28;20486;-64
2022/09/25 14:10:09;;;;;;;3.10;1.13;;;21.70;79.40;;;;;;5010058;28;20450;-62
2022/09/25 14:12:41;;;;;;;1.10;0.93;;;21.70;79.30;;;;;;5004047;28;20459;-65
2022/09/25 14:15:28;;;;;;;1.13;0.80;;;21.70;79.30;;;;;;4997076;28;20449;-66
2022/09/25 14:17:57;;;;;;;0.73;0.73;;;21.70;78.80;;;;;;4990271;28;20504;-63
2022/09/25 14:20:32;;;;;;;1.67;1.17;;;21.70;79.10;;;;;;4991540;28;20446;-67
2022/09/25 14:23:02;;;;;;;0.70;0.70;;;21.70;77.90;;;;;;4991895;28;20821;-65
2022/09/25 14:25:35;;;;;;;1.10;1.10;;;21.70;75.40;;;;;;4991944;28;20968;-65
2022/09/25 14:28:03;;;;;;;1.07;0.80;;;21.70;75.80;;;;;;4991803;28;20479;-69
2022/09/25 14:30:31;;;;;;;1.27;0.73;;;21.80;76.20;;;;;;4991772;28;20450;-69
2022/09/25 14:33:31;;;;;;;1.07;0.80;;;21.70;77.20;;;;;;4991834;28;20480;-67
2022/09/25 14:36:07;;;;;;;1.43;0.90;;;21.80;78.30;;;;;;4991267;28;20478;-67
2022/09/25 14:39:18;;;;;;;0.87;0.87;;;21.80;77.90;;;;;;4995887;28;20443;-69
2022/09/25 14:42:16;;;;;;;1.13;1.03;;;21.80;77.20;;;;;;4988965;28;20461;-68
2022/09/25 14:45:21;;;;;;;2.20;1.00;;;21.70;77.70;;;;;;5002944;28;20465;-69
2022/09/25 14:47:51;;;;;;;3.43;0.90;;;21.80;77.00;;;;;;4996973;28;20573;-69
2022/09/25 14:50:22;;;;;;;1.93;0.77;;;21.80;74.50;;;;;;4996088;28;20458;-69
2022/09/25 14:52:52;;;;;;;4.93;1.17;;;21.80;72.20;;;;;;4995894;28;20443;-69
2022/09/25 14:55:21;;;;;;;1.23;0.90;;;21.90;69.70;;;;;;4996030;28;20449;-69
2022/09/25 14:57:50;;;;;;;0.90;0.90;;;21.90;69.80;;;;;;4995662;28;20521;-68
2022/09/25 15:00:23;;;;;;;0.90;0.90;;;21.90;69.10;;;;;;4995846;28;20534;-68
2022/09/25 15:02:52;;;;;;;1.10;0.70;;;21.90;67.90;;;;;;4995527;28;20451;-68
2022/09/25 15:05:29;;;;;;;1.10;1.10;;;21.90;67.30;;;;;;4995788;28;20533;-69
2022/09/25 15:07:58;;;;;;;1.73;1.53;;;21.90;67.20;;;;;;4995589;28;20509;-69
2022/09/25 15:10:31;;;;;;;0.70;0.70;;;22.00;67.40;;;;;;4995673;28;20442;-69
2022/09/25 15:13:14;;;;;;;2.93;1.80;;;22.00;66.40;;;;;;4995504;28;20452;-69
2022/09/25 15:17:20;;;;;;;1.00;1.00;;;22.00;66.50;;;;;;4995661;28;20443;-70
2022/09/25 15:18:30;;;;;;;0.73;0.70;;;22.00;66.80;;;;;;4995533;28;20447;-69
2022/09/25 15:20:57;;;;;;;1.40;0.87;;;22.00;66.80;;;;;;4995465;28;20443;-70
2022/09/25 15:23:24;;;;;;;1.33;0.80;;;22.00;66.80;;;;;;4995258;28;20477;-69
2022/09/25 15:25:54;;;;;;;1.30;0.70;;;22.00;65.50;;;;;;4995345;28;20824;-69
2022/09/25 15:28:24;;;;;;;2.03;0.70;;;22.00;64.90;;;;;;4995191;28;20478;-69
2022/09/25 15:30:56;;;;;;;1.33;0.80;;;22.00;63.30;;;;;;4995198;28;20811;-69
2022/09/25 15:33:26;;;;;;;1.40;0.60;;;22.00;62.00;;;;;;4995098;28;20457;-69
2022/09/25 15:35:57;;;;;;;1.00;1.00;;;22.00;62.80;;;;;;4994882;28;20490;-69
2022/09/25 15:38:29;;;;;;;1.13;0.73;;;22.00;63.10;;;;;;4995253;28;20447;-69
2022/09/25 15:40:56;;;;;;;0.63;0.63;;;22.00;61.40;;;;;;4995116;28;20546;-69
2022/09/25 15:43:25;;;;;;;1.40;0.83;;;22.00;62.80;;;;;;4994904;28;20447;-69
2022/09/25 15:45:57;;;;;;;0.70;0.70;;;21.90;63.10;;;;;;4994929;28;20554;-69
2022/09/25 15:48:28;;;;;;;1.37;0.60;;;21.90;63.10;;;;;;4994978;28;20490;-70
2022/09/25 15:50:57;;;;;;;0.80;0.80;;;21.90;63.30;;;;;;4995003;28;20451;-69
2022/09/25 15:53:31;;;;;;;0.80;0.80;;;21.90;63.40;;;;;;4994829;28;20451;-69
2022/09/25 15:56:13;;;;;;;0.90;0.90;;;21.90;62.80;;;;;;4994572;28;20988;-68
2022/09/25 15:58:48;;;;;;;1.47;0.80;;;21.90;63.00;;;;;;4994932;28;20447;-70
2022/09/25 16:06:51;;;;;;;1.47;0.87;;;21.80;60.90;;;;;;4994580;28;20553;-69
2022/09/25 16:09:29;;;;;;;1.03;0.77;;;21.80;62.10;;;;;;4994624;28;20450;-69
2022/09/25 16:12:11;;;;;;;0.80;0.80;;;21.80;61.20;;;;;;4994474;28;20557;-69
2022/09/25 16:14:40;;;;;;;0.70;0.70;;;21.80;60.50;;;;;;4994637;28;20443;-69
2022/09/25 16:17:16;;;;;;;1.07;0.83;;;21.80;60.20;;;;;;4994402;28;20559;-68
2022/09/25 16:19:43;;;;;;;0.70;0.70;;;21.80;60.50;;;;;;4994537;28;20442;-69
2022/09/25 16:22:21;;;;;;;0.80;0.80;;;21.80;59.90;;;;;;4994174;28;20443;-69
2022/09/25 16:24:51;;;;;;;1.37;0.70;;;21.80;60.10;;;;;;4994272;28;20452;-69
2022/09/25 16:27:25;;;;;;;0.80;0.80;;;21.80;59.90;;;;;;4994160;28;20670;-70
2022/09/25 16:29:56;;;;;;;2.20;0.80;;;21.80;59.70;;;;;;4994149;28;20493;-67
2022/09/25 16:32:23;;;;;;;0.73;0.70;;;21.70;59.40;;;;;;4994315;28;20536;-69
2022/09/25 16:34:58;;;;;;;0.53;0.53;;;21.80;59.70;;;;;;4994057;28;20530;-69
2022/09/25 16:37:29;;;;;;;2.60;0.80;;;21.70;59.60;;;;;;4993944;28;21006;-69
2022/09/25 16:40:19;;;;;;;0.70;0.70;;;21.70;60.30;;;;;;4994082;28;20953;-69
2022/09/25 16:42:47;;;;;;;0.90;0.90;;;21.70;59.80;;;;;;4993756;28;20451;-68
2022/09/25 16:45:19;;;;;;;0.70;0.70;;;21.70;59.80;;;;;;4993826;28;20451;-69
2022/09/25 16:47:46;;;;;;;1.00;0.80;;;21.70;60.30;;;;;;4993821;28;20577;-69
2022/09/25 16:50:14;;;;;;;0.77;0.77;;;21.70;60.40;;;;;;4993788;28;20462;-69
2022/09/25 16:52:42;;;;;;;1.57;0.77;;;21.70;60.50;;;;;;4993602;28;20537;-69
2022/09/25 16:55:17;;;;;;;0.70;0.70;;;21.70;60.20;;;;;;4993748;28;20815;-68
2022/09/25 16:57:44;;;;;;;0.90;0.90;;;21.70;60.00;;;;;;4993626;28;20466;-69
2022/09/25 17:00:17;;;;;;;0.80;0.60;;;21.70;60.20;;;;;;4993553;28;20490;-68
2022/09/25 17:02:46;;;;;;;0.93;0.60;;;21.70;59.60;;;;;;4993491;28;20787;-69
2022/09/25 17:05:16;;;;;;;1.50;0.77;;;21.70;60.30;;;;;;4993525;28;20542;-69
2022/09/25 17:07:45;;;;;;;0.50;0.50;;;21.70;59.50;;;;;;4993098;28;20851;-68
2022/09/25 17:10:14;;;;;;;0.50;0.50;;;21.60;59.00;;;;;;4993049;28;20822;-69
2022/09/25 17:12:41;;;;;;;0.90;0.60;;;21.60;59.00;;;;;;4993243;28;20447;-69
2022/09/25 17:15:17;;;;;;;1.00;0.90;;;21.60;58.90;;;;;;4993360;28;20534;-69
2022/09/25 17:17:43;;;;;;;0.70;0.70;;;21.60;58.80;;;;;;4992074;28;20462;-68
2022/09/25 17:20:11;;;;;;;0.97;0.73;;;21.60;58.60;;;;;;4993298;28;20447;-70
2022/09/25 17:22:38;;;;;;;0.60;0.60;;;21.60;58.50;;;;;;4993015;28;20533;-69
2022/09/25 17:25:16;;;;;;;0.87;0.80;;;21.60;58.20;;;;;;4993257;28;20537;-69
2022/09/25 17:27:43;;;;;;;0.77;0.77;;;21.60;58.30;;;;;;4993061;28;20850;-69
2022/09/25 17:30:11;;;;;;;1.17;0.70;;;21.60;58.30;;;;;;4993037;28;20451;-71
2022/09/25 17:32:40;;;;;;;0.60;0.60;;;21.60;58.10;;;;;;4992905;28;20527;-68
2022/09/25 17:35:41;;;;;;;1.13;1.13;;;21.60;57.90;;;;;;4993078;28;20451;-69
2022/09/25 17:38:08;;;;;;;0.70;0.70;;;21.60;58.10;;;;;;4993078;28;20805;-70
2022/09/25 17:40:35;;;;;;;2.20;1.00;;;21.50;58.00;;;;;;4993062;28;20921;-70
2022/09/25 17:43:02;;;;;;;0.70;0.70;;;21.50;58.20;;;;;;4992563;28;20451;-68
2022/09/25 17:45:36;;;;;;;0.80;0.80;;;21.60;58.20;;;;;;4992961;28;20486;-69
2022/09/25 17:48:04;;;;;;;1.03;0.70;;;21.60;58.30;;;;;;4992796;28;20487;-68
2022/09/25 17:50:34;;;;;;;0.70;0.70;;;21.50;58.30;;;;;;4992790;28;20446;-69
2022/09/25 17:53:01;;;;;;;0.67;0.67;;;21.50;58.20;;;;;;4992517;28;20487;-68
2022/09/25 17:55:30;;;;;;;0.73;0.73;;;21.50;58.40;;;;;;4992877;28;20463;-69
2022/09/25 17:57:57;;;;;;;2.10;0.80;;;21.50;58.20;;;;;;4992840;28;20454;-68
2022/09/25 18:00:25;;;;;;;0.67;0.67;;;21.50;58.10;;;;;;4992618;28;20825;-69
2022/09/25 18:02:52;;;;;;;1.70;0.70;;;21.50;58.30;;;;;;4992359;28;20447;-70
2022/09/25 18:05:20;;;;;;;0.60;0.60;;;21.50;58.40;;;;;;4992595;28;20454;-69
2022/09/25 18:07:47;;;;;;;0.70;0.63;;;21.50;58.40;;;;;;4992384;28;20574;-68
2022/09/25 18:10:14;;;;;;;1.00;1.00;;;21.50;58.20;;;;;;4992462;28;20442;-69
2022/09/25 18:12:41;;;;;;;0.80;0.80;;;21.50;58.20;;;;;;4992366;28;20449;-68
2022/09/25 18:15:11;;;;;;;0.83;0.83;;;21.40;58.30;;;;;;4992404;28;20529;-70
2022/09/25 18:17:38;;;;;;;0.63;0.63;;;21.40;58.40;;;;;;4992253;28;20494;-69
2022/09/25 18:22:52;;;;;;;0.80;0.70;;;21.40;58.60;;;;;;4992250;28;20509;-69
2022/09/25 18:25:19;;;;;;;0.80;0.80;;;21.40;59.20;;;;;;4992389;28;21020;-70
2022/09/25 18:27:46;;;;;;;0.70;0.70;;;21.40;58.80;;;;;;4992126;28;21068;-70
2022/09/25 18:30:15;;;;;;;0.87;0.87;;;21.40;58.80;;;;;;4992229;28;20534;-69
2022/09/25 18:32:43;;;;;;;0.80;0.80;;;21.40;58.90;;;;;;4992214;28;20455;-70
2022/09/25 18:35:12;;;;;;;1.60;0.77;;;21.40;58.80;;;;;;4992222;28;20455;-69
2022/09/25 18:37:40;;;;;;;0.90;0.90;;;21.40;58.90;;;;;;4992578;28;20475;-69
2022/09/25 18:40:09;;;;;;;0.97;0.97;;;21.40;59.00;;;;;;4992232;28;20534;-68
2022/09/25 18:42:36;;;;;;;0.67;0.60;;;21.40;59.00;;;;;;4991946;28;20470;-67
2022/09/25 18:45:03;;;;;;;1.23;1.13;;;21.40;59.00;;;;;;4992102;28;20451;-67
2022/09/25 18:47:30;;;;;;;0.60;0.60;;;21.40;59.20;;;;;;4992003;28;20582;-67
2022/09/25 18:49:57;;;;;;;1.10;0.80;;;21.40;59.80;;;;;;4992137;28;20461;-68
2022/09/25 18:52:24;;;;;;;0.70;0.70;;;21.40;59.30;;;;;;4991908;28;20447;-68
2022/09/25 18:54:51;;;;;;;1.00;1.00;;;21.40;59.40;;;;;;4992206;28;20471;-68
2022/09/25 18:57:19;;;;;;;0.80;0.80;;;21.40;59.80;;;;;;4991973;28;20869;-69
2022/09/25 18:59:46;;;;;;;0.73;0.73;;;21.30;59.40;;;;;;4992045;28;20980;-68
2022/09/25 19:02:19;;;;;;;0.60;0.60;;;21.40;59.50;;;;;;4991768;28;20486;-68
2022/09/25 19:04:47;;;;;;;0.80;0.80;;;21.30;59.60;;;;;;4992015;28;20454;-68
2022/09/25 19:07:14;;;;;;;0.77;0.77;;;21.30;59.60;;;;;;4991878;28;20644;-68
2022/09/25 19:09:41;;;;;;;0.70;0.70;;;21.30;59.70;;;;;;4992021;28;20992;-67
2022/09/25 19:12:10;;;;;;;0.77;0.70;;;21.30;60.70;;;;;;4991647;28;20490;-68
2022/09/25 19:14:38;;;;;;;1.07;0.90;;;21.30;59.80;;;;;;4991830;28;20533;-68
2022/09/25 19:17:05;;;;;;;1.07;0.80;;;21.30;60.00;;;;;;4991869;28;20521;-67
2022/09/25 19:19:33;;;;;;;0.80;0.80;;;21.30;59.90;;;;;;4991930;28;20870;-67
2022/09/25 19:22:01;;;;;;;1.37;1.07;;;21.30;60.10;;;;;;4991642;28;20509;-68
2022/09/25 19:24:29;;;;;;;3.53;1.07;;;21.30;60.20;;;;;;4991837;28;20446;-67
2022/09/25 19:26:56;;;;;;;1.00;0.77;;;21.30;60.10;;;;;;4991709;28;20988;-68
2022/09/25 19:29:23;;;;;;;1.00;0.70;;;21.30;60.30;;;;;;4991607;28;20582;-69
2022/09/25 19:31:52;;;;;;;1.07;0.80;;;21.30;60.50;;;;;;4992631;28;20949;-67
2022/09/25 19:34:18;;;;;;;1.63;0.90;;;21.30;60.70;;;;;;4995286;28;20534;-68
2022/09/25 19:36:45;;;;;;;1.10;1.00;;;21.30;60.80;;;;;;4995153;28;20525;-68
2022/09/25 19:39:12;;;;;;;0.70;0.70;;;21.30;60.90;;;;;;4995200;28;20443;-68
2022/09/25 19:41:39;;;;;;;0.80;0.80;;;21.30;60.90;;;;;;4995109;28;21079;-68
2022/09/25 19:44:10;;;;;;;0.90;0.80;;;21.30;61.00;;;;;;4995104;28;21023;-68
2022/09/25 19:46:38;;;;;;;0.90;0.90;;;21.30;61.20;;;;;;4995119;28;20471;-67
2022/09/25 19:49:07;;;;;;;0.73;0.73;;;21.30;62.00;;;;;;4995092;28;20850;-68
2022/09/25 19:51:34;;;;;;;0.87;0.87;;;21.30;62.10;;;;;;4994882;28;20439;-68
2022/09/25 19:54:00;;;;;;;0.70;0.70;;;21.30;61.40;;;;;;4994921;28;20478;-68
2022/09/25 19:56:28;;;;;;;0.77;0.63;;;21.30;61.50;;;;;;4994819;28;20578;-67
2022/09/25 19:58:55;;;;;;;0.77;0.77;;;21.30;61.60;;;;;;4994924;28;20444;-68
2022/09/25 20:01:24;;;;;;;1.37;0.80;;;21.30;61.70;;;;;;4994607;28;20455;-68